메인 페이지
METAR-TAF:

METAR-TAF

공항 :

베이루트, 레바논

위도: 33-49N, 경도: 035-29E, 고도: 29m

현재 날씨관측

예보는 14분 전, 22:00시(UTC)에 발표되었습니다.
5kt
온도 27°C
습도 70%
기압 1008 hPa
시정 10km 이상
고도 3000ft 상공 구름 조금

METAR: OLBA 182200Z 19005KT 9999 FEW030 27/21 Q1008 NOSIG

시각: 01:14 (22:14 UTC)

예보

예보는 6 시간 14분 전, 16:00시(UTC)에 발표되었습니다.
예보 대상 시간: 18일 18시부터 19일 24시까지 (UTC)
10kt
시정 10km 이상
고도 2600ft 상공 구름 보통
전환 중
19일 09시부터 19일 12시까지 (UTC)
남서10kt
시정: 8000m
고도 2600ft 상공 구름 많음
전환 중
19일 18시부터 19일 21시까지 (UTC)
10kt
시정 10km 이상
고도 2600ft 상공 구름 보통

TAF: OLBA 181600Z 1818/1924 19010KT 9999 SCT026 BECMG 1909/1912 22010KT 8000 BKN026 BECMG 1918/1921 19010KT 9999 SCT026

4,000개 이상의 공항 관측 자료 및 예보 (METAR 및 TAF 보고).

지도상에서 검색 가능한 기상관측소가 노란 점과 빨간 점으로 표시되어 있습니다.

기상관측소 명을 보려면 표시 위로 마우스를 이동하세요.

날씨 관측과 예보를 보려면 클릭하세요.

지도 변경 : 확대하려면 엑스 표시가 있는 녹색 버튼, 축소하려면 빼기 표시가 있는 녹색 버튼, 다음 페이지의 지도를 보려면 녹색 화살표를 클릭하세요.


METAR-TAF: